Skip Navigation Links
NOAA logo - Click to go to the NOAA homepage
NOAA's National Weather Service
Alaska Aviation Weather Unit
  NWS logo - Click to go to the NWS homepage
Left Navbar Graphic     02 AKDT = 10 GMT

   
NOAA is celebrating 200 years of science, service, and stewardship. Visit the NOAA 200th celebration Web site to learn more.
USA.gov is the U.S. Government's official Web portal to all Federal, state and local government Web resources and services.
Facebook
NWS on Facebook

AAWU Home :: Display TAF Add Bookmark
TAF PAFB 251632Z 2516/2618 VRB06KT 9999 FEW015 QNH2990INS
      TXM11/2603Z TNM30/25167Z
      LAST NO AMDS AFT 2516
      NEXT 2712=
METAR PAFB 270458Z AUTO 06005KT 10SM CLR M09/M19 A2979=

METAR PAFB 270558Z AUTO 06006KT 10SM CLR M10/M19 A2979=

METAR PAFB 270658Z AUTO 07005KT 10SM CLR M12/M19 A2978=

METAR PAFB 270758Z AUTO 07003KT 10SM CLR M15/M21 A2979=

METAR PAFB 270858Z AUTO 00000KT 10SM CLR M16/M21 A2978=

METAR PAFB 270958Z AUTO 06005KT 10SM CLR M16/M21 A2977=


NOAA's National Weather Service
Alaska Aviation Weather Unit
6930 Sand Lake Road
Anchorage, AK 99502-1845
Disclaimer
Credits
Glossary
Privacy Policy
About Us
Career Opportunities
Contact AAWU Internet Services Site last modified: April, 17th 2012